Terminal Aerodrome Forecast
Issued by NWS

Home | Current Version | Previous Version | Text Only | Print | Product List | Glossary Off
Versions: 1 2 3 4 5 6 7 8 9 10 11 12 13 14 15 16 17

789
FTUS43 KTOP 251739
TAFMHK
TAF
KMHK 251739Z 2518/2618 28006KT P6SM BKN080
     FM251900 35005KT P6SM BKN050
     FM252300 34009KT P6SM VCSH OVC030
     FM260200 33013G21KT P6SM VCSH OVC025
     FM260500 34014G22KT P6SM VCSH OVC015
     FM261000 33015G23KT P6SM OVC020=

USA.gov is the U.S. government's official web portal to all federal, state and local government web resources and services.